createdAt,value
2023-01-25T01:31:51.451Z,11.90
2023-01-25T01:34:19.387Z,11.73
2023-01-25T01:36:46.897Z,11.80
2023-01-25T01:39:14.598Z,9.98
2023-01-25T01:41:42.059Z,10.18
2023-01-25T01:44:14.755Z,9.52
2023-01-25T01:46:42.704Z,8.73
2023-01-25T01:49:13.951Z,9.55
2023-01-25T01:51:44.157Z,9.32
2023-01-25T01:54:13.835Z,8.98
2023-01-25T01:56:44.513Z,9.32
2023-01-25T01:59:12.233Z,9.32
2023-01-25T02:01:40.747Z,11.18
2023-01-25T02:04:09.242Z,10.50
2023-01-25T02:06:43.460Z,10.75
2023-01-25T02:09:11.332Z,9.90
2023-01-25T02:11:39.279Z,9.60
2023-01-25T02:14:06.980Z,9.35
2023-01-25T02:16:34.494Z,10.60
2023-01-25T02:19:03.570Z,10.40
2023-01-25T02:21:33.468Z,10.18
2023-01-25T02:24:05.110Z,11.02
2023-01-25T02:26:34.718Z,10.55
2023-01-25T02:29:04.225Z,10.52
2023-01-25T02:31:31.788Z,11.18
2023-01-25T02:33:59.591Z,9.90
2023-01-25T02:36:28.421Z,8.07
2023-01-25T02:38:56.873Z,9.63
2023-01-25T02:41:26.083Z,9.93
2023-01-25T02:43:54.965Z,10.05
2023-01-25T02:46:26.020Z,10.20
2023-01-25T02:48:54.716Z,10.27
2023-01-25T02:51:22.527Z,10.18
2023-01-25T02:53:50.146Z,10.70
2023-01-25T02:56:18.298Z,12.05
2023-01-25T02:58:46.125Z,11.00
2023-01-25T03:01:16.007Z,11.85
2023-01-25T03:03:43.582Z,10.75
2023-01-25T03:06:11.152Z,9.93
2023-01-25T03:08:38.770Z,9.32
2023-01-25T03:11:07.065Z,10.50
2023-01-25T03:13:35.415Z,10.45
2023-01-25T03:16:04.215Z,9.65
2023-01-25T03:18:33.185Z,10.55
2023-01-25T03:21:05.664Z,10.35
2023-01-25T03:23:33.169Z,8.85
2023-01-25T03:26:08.245Z,9.52
2023-01-25T03:28:35.828Z,9.27
2023-01-25T03:31:03.344Z,8.80
2023-01-25T03:33:30.864Z,9.80
2023-01-25T03:35:59.888Z,8.77
2023-01-25T03:38:27.592Z,9.57
2023-01-25T03:40:55.229Z,9.57
2023-01-25T03:43:22.706Z,8.95
2023-01-25T03:45:53.066Z,10.00
2023-01-25T03:48:20.620Z,9.13
2023-01-25T03:50:51.830Z,8.85
2023-01-25T03:53:27.573Z,8.75
2023-01-25T03:55:56.484Z,10.15
2023-01-25T03:58:23.977Z,8.80
2023-01-25T04:00:51.611Z,8.85
2023-01-25T04:03:19.958Z,9.93
2023-01-25T04:05:47.886Z,9.90
2023-01-25T04:08:15.715Z,10.13
2023-01-25T04:10:44.770Z,9.35
2023-01-25T04:13:12.439Z,8.75
2023-01-25T04:15:40.177Z,9.95
2023-01-25T04:18:07.680Z,10.38
2023-01-25T04:20:35.191Z,10.07
2023-01-25T04:23:02.723Z,9.23
2023-01-25T04:25:30.220Z,9.73
2023-01-25T04:27:59.345Z,8.63
2023-01-25T04:30:27.002Z,8.75
2023-01-25T04:32:54.614Z,8.48
2023-01-25T04:35:22.130Z,9.50
2023-01-25T04:37:53.989Z,8.43
2023-01-25T04:40:21.625Z,9.43
2023-01-25T04:42:49.158Z,9.90
2023-01-25T04:45:18.029Z,8.95
2023-01-25T04:47:45.490Z,9.95
2023-01-25T04:50:12.985Z,9.73
2023-01-25T04:52:40.530Z,8.13
2023-01-25T04:55:08.572Z,8.15
2023-01-25T04:57:36.262Z,9.30
2023-01-25T05:00:04.847Z,8.05
2023-01-25T05:02:33.867Z,9.57
2023-01-25T05:05:01.497Z,9.27
2023-01-25T05:07:29.067Z,9.20
2023-01-25T05:09:56.564Z,8.23
2023-01-25T05:12:24.111Z,8.63
2023-01-25T05:14:51.689Z,9.65
2023-01-25T05:17:19.205Z,8.20
2023-01-25T05:19:48.153Z,9.18
2023-01-25T05:22:16.657Z,8.93
2023-01-25T05:24:45.325Z,9.23
2023-01-25T05:27:12.587Z,9.45
2023-01-25T05:29:40.806Z,9.68
2023-01-25T05:32:08.983Z,8.15
2023-01-25T05:34:36.615Z,9.20
2023-01-25T05:37:06.565Z,8.95
2023-01-25T05:39:34.348Z,9.88
2023-01-25T05:42:01.892Z,10.02
2023-01-25T05:44:29.406Z,10.20
2023-01-25T05:46:57.010Z,8.88
2023-01-25T05:49:24.516Z,9.90
2023-01-25T05:51:52.125Z,8.55
2023-01-25T05:54:20.983Z,9.80
2023-01-25T05:56:49.886Z,9.52
2023-01-25T05:59:17.662Z,10.23
2023-01-25T06:01:45.439Z,9.75
2023-01-25T06:04:14.059Z,9.93
2023-01-25T06:06:41.680Z,10.05
2023-01-25T06:09:09.203Z,9.90
2023-01-25T06:11:38.116Z,9.70
2023-01-25T06:14:06.251Z,9.15
2023-01-25T06:16:34.012Z,11.00
2023-01-25T06:19:01.569Z,9.35
2023-01-25T06:21:29.052Z,10.15
2023-01-25T06:23:56.626Z,8.85
2023-01-25T06:26:24.195Z,9.60
2023-01-25T06:28:53.578Z,9.85
2023-01-25T06:31:21.490Z,8.55
2023-01-25T06:33:49.759Z,8.68
2023-01-25T06:36:18.582Z,9.52
2023-01-25T06:38:48.985Z,11.05
2023-01-25T06:41:16.497Z,11.43
2023-01-25T06:43:44.042Z,8.73
2023-01-25T06:46:13.067Z,9.45
2023-01-25T06:48:41.791Z,10.25
2023-01-25T06:51:10.481Z,10.20
2023-01-25T06:53:39.592Z,9.52
2023-01-25T06:56:10.068Z,10.63
2023-01-25T06:58:38.495Z,9.10
2023-01-25T07:01:07.005Z,11.07
2023-01-25T07:03:36.018Z,9.52
2023-01-25T07:06:04.760Z,10.38
2023-01-25T07:08:32.995Z,10.68
2023-01-25T07:11:01.361Z,10.70
2023-01-25T07:13:29.728Z,12.30
2023-01-25T07:15:58.081Z,10.05
2023-01-25T07:18:26.157Z,11.35
2023-01-25T07:20:55.110Z,11.13
2023-01-25T07:23:22.698Z,11.77
2023-01-25T07:25:51.614Z,11.32
2023-01-25T07:28:19.316Z,10.93
2023-01-25T07:30:46.867Z,12.85
2023-01-25T07:33:14.332Z,11.90
2023-01-25T07:35:41.823Z,11.95
2023-01-25T07:38:16.860Z,11.95
2023-01-25T07:41:11.927Z,10.68
2023-01-25T07:43:39.648Z,11.80
2023-01-25T07:46:08.161Z,11.95
2023-01-25T07:48:35.920Z,11.20
2023-01-25T07:51:22.862Z,11.95
2023-01-25T07:53:52.773Z,12.65
2023-01-25T07:56:20.869Z,12.65
2023-01-25T07:58:48.789Z,11.90
2023-01-25T08:01:16.913Z,12.30
2023-01-25T08:03:45.030Z,14.15
2023-01-25T08:06:12.914Z,12.35
2023-01-25T08:08:41.857Z,12.00
2023-01-25T08:11:13.053Z,12.57
2023-01-25T08:13:40.672Z,12.65
2023-01-25T08:16:08.651Z,14.48
2023-01-25T08:18:39.192Z,14.70
2023-01-25T08:21:06.981Z,13.85
2023-01-25T08:23:34.634Z,12.73
2023-01-25T08:26:18.499Z,14.32
2023-01-25T10:27:25.847Z,17.33
2023-01-25T10:29:54.149Z,15.02
2023-01-25T10:32:27.062Z,15.77
2023-01-25T10:34:57.641Z,14.13
2023-01-25T10:37:31.193Z,14.32
2023-01-25T10:40:05.699Z,14.85
2023-01-25T10:42:39.362Z,14.07
2023-01-25T10:45:11.935Z,13.30
2023-01-25T10:47:42.371Z,14.93
2023-01-25T10:50:11.152Z,15.77
2023-01-25T10:52:41.497Z,14.70
2023-01-25T10:55:16.108Z,15.25
2023-01-25T10:58:05.115Z,15.55
2023-01-25T11:00:36.739Z,13.27
2023-01-25T11:03:21.258Z,12.57
2023-01-25T11:05:55.726Z,11.95
2023-01-25T11:08:24.610Z,18.30
2023-01-25T11:10:53.510Z,19.98
2023-01-25T11:13:24.129Z,19.77
2023-01-25T11:15:56.249Z,18.65
2023-01-25T11:18:25.620Z,17.15
2023-01-25T11:21:15.013Z,17.45
2023-01-25T11:23:42.761Z,17.40
2023-01-25T11:26:19.512Z,18.60
2023-01-25T11:28:49.434Z,16.05
2023-01-25T11:31:22.077Z,14.20
2023-01-25T11:33:49.892Z,14.02
2023-01-25T11:39:26.740Z,16.48
2023-01-25T11:41:59.393Z,16.55
2023-01-25T11:44:37.553Z,15.55
2023-01-25T11:47:26.297Z,14.40
2023-01-25T11:55:30.355Z,18.17
2023-01-25T11:58:30.455Z,16.52
2023-01-25T12:01:06.133Z,17.80
2023-01-25T12:03:46.014Z,20.73
2023-01-25T12:06:16.359Z,22.98
2023-01-25T12:08:54.621Z,20.55
2023-01-25T12:11:27.363Z,20.48
2023-01-25T12:13:59.936Z,21.83
2023-01-25T12:16:44.889Z,20.55
2023-01-25T12:19:23.342Z,20.90
2023-01-25T12:22:02.635Z,20.27
2023-01-25T12:24:37.896Z,21.65
2023-01-25T12:27:17.804Z,22.73
2023-01-25T12:29:47.929Z,22.42
2023-01-25T12:32:20.515Z,21.08
2023-01-25T12:34:52.442Z,23.38
2023-01-25T12:37:22.006Z,22.23
2023-01-25T12:39:51.762Z,24.13
2023-01-25T12:42:21.331Z,23.92
2023-01-25T12:44:50.669Z,22.60
2023-01-25T12:47:21.360Z,24.42
2023-01-25T12:49:55.437Z,22.77
2023-01-25T12:52:25.258Z,25.02
2023-01-25T12:54:56.193Z,23.65
2023-01-25T12:57:26.966Z,24.00
2023-01-25T13:00:00.106Z,22.02
2023-01-25T13:02:35.368Z,20.42
2023-01-25T13:05:15.539Z,23.13
2023-01-25T13:07:45.175Z,17.95
2023-01-25T13:10:18.645Z,19.90
2023-01-25T13:12:52.992Z,18.42
2023-01-25T13:15:37.674Z,20.30
2023-01-25T13:18:20.042Z,21.80
2023-01-25T13:20:53.525Z,21.25
2023-01-25T13:23:31.821Z,20.65
2023-01-25T13:26:18.334Z,17.38
2023-01-25T13:28:47.114Z,19.75
2023-01-25T13:31:39.882Z,18.90
2023-01-25T13:34:14.623Z,19.65
2023-01-25T13:36:51.041Z,20.60
2023-01-25T13:39:37.436Z,19.25
2023-01-25T13:42:05.986Z,18.65
2023-01-25T13:44:35.070Z,20.38
2023-01-25T13:47:04.452Z,20.08
2023-01-25T13:49:33.452Z,19.13
2023-01-25T13:52:03.159Z,20.48
2023-01-25T13:54:30.720Z,20.15
2023-01-25T13:57:04.526Z,21.02
2023-01-25T13:59:32.054Z,20.70
2023-01-25T14:02:00.217Z,18.45
2023-01-25T14:04:28.367Z,18.13
2023-01-25T14:06:58.104Z,20.15
2023-01-25T14:09:27.526Z,18.42
2023-01-25T14:11:56.330Z,17.83
2023-01-25T14:14:26.759Z,19.77
2023-01-25T14:17:04.897Z,18.00
2023-01-25T14:19:33.530Z,19.08
2023-01-25T14:22:19.550Z,19.23
2023-01-25T14:25:00.820Z,18.08
2023-01-25T14:27:28.730Z,20.02
2023-01-25T14:29:56.901Z,17.88
2023-01-25T14:32:26.160Z,21.48
2023-01-25T14:34:53.734Z,21.30
2023-01-25T14:37:22.075Z,21.05
2023-01-25T14:39:52.047Z,18.55
2023-01-25T14:42:19.874Z,20.10
2023-01-25T14:44:47.894Z,19.85
2023-01-25T14:47:25.216Z,20.73
2023-01-25T14:49:53.583Z,21.95
2023-01-25T14:52:21.604Z,20.10
2023-01-25T14:54:51.327Z,20.95
2023-01-25T14:57:30.816Z,20.55
2023-01-25T14:59:58.792Z,20.30
2023-01-25T15:02:27.330Z,18.70
2023-01-25T15:04:57.209Z,17.48
2023-01-25T15:07:35.292Z,15.98
2023-01-25T15:10:03.865Z,17.20
2023-01-25T15:12:33.861Z,17.92
2023-01-25T15:15:03.680Z,20.55
2023-01-25T15:17:41.355Z,18.85
2023-01-25T15:20:28.215Z,20.88
2023-01-25T15:22:57.068Z,17.98
2023-01-25T15:25:24.908Z,20.88
2023-01-25T15:27:54.791Z,19.00
2023-01-25T15:30:22.467Z,20.27
2023-01-25T15:32:50.406Z,19.85
2023-01-25T15:35:19.790Z,21.63
2023-01-25T15:37:49.248Z,20.55
2023-01-25T15:40:17.504Z,21.92
2023-01-25T15:42:45.038Z,21.70
2023-01-25T15:45:14.716Z,23.92
2023-01-25T15:47:49.825Z,20.45
2023-01-25T15:50:18.627Z,24.88
2023-01-25T15:52:46.153Z,21.80
2023-01-25T15:55:14.952Z,24.77
2023-01-25T15:57:46.832Z,23.73
2023-01-25T16:00:21.757Z,22.58
2023-01-25T16:02:49.428Z,22.92
2023-01-25T19:26:28.423Z,26.17
2023-01-25T19:28:57.549Z,24.40
2023-01-25T19:31:26.358Z,24.30
2023-01-25T19:33:55.485Z,25.58
2023-01-25T19:36:23.186Z,24.95
2023-01-25T19:38:51.119Z,25.42
2023-01-25T19:41:25.399Z,23.65
2023-01-25T19:43:54.107Z,26.45
2023-01-25T19:46:26.930Z,23.92
2023-01-25T19:48:55.464Z,25.85
2023-01-25T19:51:27.349Z,25.30
2023-01-25T19:53:55.815Z,23.48
2023-01-25T19:56:23.477Z,23.42
2023-01-25T19:58:51.645Z,24.23
2023-01-25T20:01:20.003Z,23.60
2023-01-25T20:03:49.227Z,24.00
2023-01-25T20:06:17.930Z,24.17
2023-01-25T20:08:46.357Z,23.08
2023-01-25T20:11:14.779Z,25.60
2023-01-25T20:13:43.379Z,25.60
2023-01-25T20:16:12.466Z,25.38
2023-01-25T20:18:40.103Z,23.75
2023-01-25T20:21:12.417Z,24.08
2023-01-25T20:23:41.141Z,22.95
2023-01-25T20:26:09.823Z,22.98
2023-01-25T20:28:38.445Z,22.75
2023-01-25T20:31:07.508Z,20.63
2023-01-25T20:33:35.429Z,22.70
2023-01-25T20:36:12.002Z,22.80
2023-01-25T20:38:41.168Z,24.05
2023-01-25T20:41:19.055Z,24.35
2023-01-25T20:43:47.472Z,25.05
2023-01-25T20:46:17.860Z,24.15
2023-01-25T20:48:46.067Z,22.48
2023-01-25T20:51:36.712Z,23.15
2023-01-25T20:54:11.947Z,21.85
2023-01-25T20:56:41.836Z,19.73
2023-01-25T21:02:45.164Z,19.63
2023-01-25T21:05:13.207Z,21.55
2023-01-25T21:08:08.797Z,22.50
2023-01-25T21:10:40.912Z,20.85
2023-01-25T21:13:17.309Z,20.27
2023-01-25T21:19:08.151Z,20.33
2023-01-25T21:21:38.946Z,21.27
2023-01-25T21:24:07.369Z,20.27
2023-01-25T21:27:09.047Z,21.95
2023-01-25T21:29:43.231Z,20.23
2023-01-25T21:32:13.609Z,21.05
2023-01-25T21:34:42.055Z,20.80
2023-01-25T21:37:09.902Z,22.10
2023-01-25T21:39:44.129Z,20.67
2023-01-25T21:42:11.941Z,18.95
2023-01-25T21:45:06.219Z,19.27
2023-01-25T21:47:44.873Z,22.02
2023-01-25T21:50:35.256Z,22.15
2023-01-25T21:53:08.920Z,19.25
2023-01-25T21:55:37.652Z,23.00
2023-01-25T21:58:06.133Z,19.90
2023-01-25T22:00:54.816Z,17.75
2023-01-25T22:10:07.126Z,17.67
2023-01-25T22:12:40.417Z,19.38
2023-01-25T22:15:11.544Z,21.20
2023-01-25T22:17:41.166Z,18.35
2023-01-25T22:20:12.849Z,18.35
2023-01-25T22:22:44.100Z,15.65
2023-01-25T22:25:22.751Z,16.95
2023-01-25T22:28:00.468Z,15.70
2023-01-25T22:30:28.687Z,17.15
2023-01-25T22:32:58.461Z,16.30
2023-01-25T22:35:26.635Z,16.45
2023-01-25T22:37:54.393Z,15.13
2023-01-25T22:40:22.074Z,15.85
2023-01-25T22:42:51.459Z,15.43
2023-01-25T22:45:19.445Z,15.63
2023-01-25T22:47:49.655Z,14.38
2023-01-25T22:50:24.030Z,15.60
2023-01-25T22:52:52.279Z,15.75
2023-01-25T22:55:24.980Z,16.35
2023-01-25T22:57:53.286Z,14.73
2023-01-25T23:00:21.317Z,15.23
2023-01-25T23:02:49.390Z,16.23
2023-01-25T23:05:18.485Z,17.65
2023-01-25T23:07:46.624Z,19.17
2023-01-25T23:10:14.201Z,16.33
2023-01-25T23:12:42.198Z,17.88
2023-01-25T23:15:15.859Z,16.10
2023-01-25T23:18:15.908Z,15.48
2023-01-25T23:20:45.686Z,17.17
2023-01-25T23:23:13.515Z,17.13
2023-01-25T23:25:51.858Z,16.55
2023-01-25T23:28:19.707Z,17.00
2023-01-25T23:30:47.673Z,15.80
2023-01-25T23:33:15.669Z,15.15
2023-01-25T23:35:43.381Z,12.90
2023-01-25T23:38:15.337Z,16.80
2023-01-25T23:40:43.297Z,16.27
2023-01-25T23:43:10.870Z,15.20
2023-01-25T23:45:38.703Z,13.57
2023-01-25T23:48:06.653Z,15.48
2023-01-25T23:50:34.273Z,14.38
2023-01-25T23:53:02.007Z,15.57
2023-01-25T23:55:39.955Z,14.20
2023-01-25T23:58:07.686Z,15.85
